Time;durP1;ratioP1;P1;durP2;ratioP2;P2;SDS_P1;SDS_P2;PMS_P1;PMS_P2;Temp;Humidity;BMP_temperature;BMP_pressure;BME280_temperature;BME280_humidity;BME280_pressure;Samples;Min_cycle;Max_cycle;Signal;HPM_P1;HPM_P2
2022/04/06 00:01:06;;;;;;;;;;;;;;;9.00;84.04;100236.53;5045296;28;20012;-71
2022/04/06 00:03:31;;;;;;;;;;;;;;;9.05;84.00;100231.88;5045778;28;19967;-72
2022/04/06 00:05:56;;;;;;;;;;;;;;;9.02;83.96;100237.31;5046657;28;20385;-72
2022/04/06 00:08:21;;;;;;;;;;;;;;;9.06;84.13;100238.00;5045001;28;19921;-73
2022/04/06 00:10:47;;;;;;;;;;;;;;;9.04;85.07;100237.22;5045980;28;19921;-73
2022/04/06 00:13:12;;;;;;;;;;;;;;;8.96;85.68;100246.31;5045770;28;20006;-73
2022/04/06 00:15:37;;;;;;;;;;;;;;;8.90;86.44;100241.38;5045462;28;19921;-71
2022/04/06 00:18:03;;;;;;;;;;;;;;;8.92;86.83;100249.16;5077096;28;20322;-71
2022/04/06 00:20:28;;;;;;;;;;;;;;;8.88;87.58;100258.09;5046481;28;20440;-72
2022/04/06 00:22:53;;;;;;;;;;;;;;;8.81;88.72;100261.03;5044609;28;19999;-72
2022/04/06 00:25:19;;;;;;;;;;;;;;;8.78;89.23;100252.44;5045855;28;19924;-73
2022/04/06 00:27:44;;;;;;;;;;;;;;;8.72;90.20;100248.34;5045548;28;20419;-72
2022/04/06 00:30:09;;;;;;;;;;;;;;;8.75;89.92;100253.44;5044445;28;20298;-72
2022/04/06 00:32:35;;;;;;;;;;;;;;;8.73;90.43;100254.47;5043158;28;19961;-72
2022/04/06 00:37:41;;;;;;;;;;;;;;;8.70;91.29;100251.97;5041583;28;19936;-73
2022/04/06 00:40:08;;;;;;;;;;;;;;;8.69;91.16;100245.91;5044173;28;19921;-71
2022/04/06 00:42:33;;;;;;;;;;;;;;;8.72;91.18;100234.44;5045601;28;19975;-73
2022/04/06 00:44:59;;;;;;;;;;;;;;;8.73;91.33;100236.97;5045836;28;19920;-72
2022/04/06 00:47:24;;;;;;;;;;;;;;;8.77;91.10;100232.41;5044729;28;19999;-73
2022/04/06 00:49:49;;;;;;;;;;;;;;;8.72;91.21;100230.03;5045940;28;20008;-72
2022/04/06 00:52:15;;;;;;;;;;;;;;;8.74;92.17;100224.72;5049310;28;20353;-72
2022/04/06 00:54:41;;;;;;;;;;;;;;;8.74;92.48;100227.34;5050438;28;19921;-71
2022/04/06 00:57:07;;;;;;;;;;;;;;;8.69;92.31;100237.19;5049428;28;20298;-72
2022/04/06 00:59:33;;;;;;;;;;;;;;;8.69;92.70;100235.44;5051056;28;19931;-72
2022/04/06 01:01:58;;;;;;;;;;;;;;;8.72;92.19;100232.63;5048651;28;19927;-73
2022/04/06 01:04:24;;;;;;;;;;;;;;;8.69;92.23;100217.09;5049248;28;19923;-73
2022/04/06 01:06:50;;;;;;;;;;;;;;;8.71;91.78;100212.59;5047183;28;20007;-72
2022/04/06 01:09:15;;;;;;;;;;;;;;;8.72;91.93;100216.94;5047399;28;19952;-72
2022/04/06 01:11:43;;;;;;;;;;;;;;;8.69;92.73;100224.97;5049719;28;19917;-73
2022/04/06 01:14:09;;;;;;;;;;;;;;;8.70;93.39;100220.56;5049716;28;19921;-72
2022/04/06 01:16:34;;;;;;;;;;;;;;;8.69;94.12;100229.34;5049528;28;19923;-72
2022/04/06 01:18:59;;;;;;;;;;;;;;;8.69;94.59;100218.84;5037634;28;19917;-73
2022/04/06 01:21:25;;;;;;;;;;;;;;;8.65;95.04;100224.22;5046775;28;19928;-73
2022/04/06 01:23:50;;;;;;;;;;;;;;;8.66;95.04;100230.34;5048360;28;19928;-72
2022/04/06 01:26:15;;;;;;;;;;;;;;;8.66;95.21;100225.94;5047424;28;20282;-71
2022/04/06 01:28:41;;;;;;;;;;;;;;;8.63;95.35;100226.09;5047834;28;19921;-72
2022/04/06 01:31:07;;;;;;;;;;;;;;;8.66;95.19;100218.06;5046143;28;19956;-73
2022/04/06 01:33:32;;;;;;;;;;;;;;;8.71;95.08;100219.63;5048816;28;19975;-72
2022/04/06 01:35:58;;;;;;;;;;;;;;;8.69;95.20;100209.25;5046960;28;19931;-73
2022/04/06 01:38:23;;;;;;;;;;;;;;;8.62;95.85;100215.69;5046612;28;19920;-71
2022/04/06 01:40:49;;;;;;;;;;;;;;;8.63;95.60;100220.00;5047849;28;19932;-72
2022/04/06 01:43:15;;;;;;;;;;;;;;;8.62;95.44;100218.31;5045505;28;20330;-72
2022/04/06 01:45:40;;;;;;;;;;;;;;;8.59;95.72;100219.31;5077684;28;19917;-71
2022/04/06 01:48:05;;;;;;;;;;;;;;;8.63;94.93;100212.16;5047927;28;20011;-72
2022/04/06 01:53:11;;;;;;;;;;;;;;;8.57;95.02;100218.53;5041236;28;20424;-72
2022/04/06 01:55:36;;;;;;;;;;;;;;;8.55;95.27;100215.13;5035513;28;19960;-71
2022/04/06 01:58:02;;;;;;;;;;;;;;;8.56;95.52;100218.63;5047021;28;20274;-73
2022/04/06 02:00:27;;;;;;;;;;;;;;;8.51;95.83;100218.84;5050328;28;19921;-72
2022/04/06 02:02:53;;;;;;;;;;;;;;;8.45;95.39;100212.09;5048540;28;19999;-71
2022/04/06 02:05:19;;;;;;;;;;;;;;;8.43;95.86;100205.25;5048428;28;19924;-73
2022/04/06 02:07:48;;;;;;;;;;;;;;;8.44;96.11;100218.25;5049710;28;19928;-73
2022/04/06 02:10:14;;;;;;;;;;;;;;;8.36;95.92;100208.13;5042303;28;19925;-72
2022/04/06 02:12:40;;;;;;;;;;;;;;;8.33;96.04;100202.22;5043741;28;19921;-73
2022/04/06 02:15:06;;;;;;;;;;;;;;;8.33;95.40;100202.22;5039390;28;20609;-72
2022/04/06 02:17:31;;;;;;;;;;;;;;;8.37;95.45;100198.53;5043034;28;20362;-73
2022/04/06 02:19:57;;;;;;;;;;;;;;;8.33;95.02;100196.97;5048076;28;19924;-71
2022/04/06 02:22:22;;;;;;;;;;;;;;;8.28;95.19;100199.81;5047534;28;19936;-73
2022/04/06 02:24:48;;;;;;;;;;;;;;;8.28;95.55;100186.72;5049859;28;19917;-72
2022/04/06 02:27:13;;;;;;;;;;;;;;;8.20;95.64;100194.94;5079101;28;19925;-71
2022/04/06 02:29:40;;;;;;;;;;;;;;;8.23;95.34;100182.63;5048581;28;19928;-72
2022/04/06 02:32:06;;;;;;;;;;;;;;;8.22;95.34;100179.16;5046978;28;20428;-73
2022/04/06 02:34:32;;;;;;;;;;;;;;;8.23;95.22;100175.63;5050095;28;19927;-72
2022/04/06 02:36:57;;;;;;;;;;;;;;;8.22;94.72;100178.31;5048226;28;19925;-72
2022/04/06 02:39:22;;;;;;;;;;;;;;;8.24;94.16;100171.25;5047818;28;19925;-73
2022/04/06 02:41:48;;;;;;;;;;;;;;;8.18;94.81;100160.13;5046669;28;19921;-73
2022/04/06 02:44:15;;;;;;;;;;;;;;;8.19;94.41;100169.69;5046817;28;20294;-72
2022/04/06 02:46:40;;;;;;;;;;;;;;;8.15;94.53;100169.91;5046872;28;19924;-72
2022/04/06 02:49:05;;;;;;;;;;;;;;;8.15;94.71;100168.16;5047690;28;19921;-72
2022/04/06 02:51:32;;;;;;;;;;;;;;;8.14;94.13;100163.84;5046698;28;20067;-72
2022/04/06 02:53:57;;;;;;;;;;;;;;;8.14;94.08;100157.75;5047659;28;19974;-72
2022/04/06 02:56:22;;;;;;;;;;;;;;;8.18;93.53;100149.69;5079092;28;19966;-73
2022/04/06 02:58:48;;;;;;;;;;;;;;;8.17;94.11;100147.16;5048105;28;19920;-72
2022/04/06 03:01:13;;;;;;;;;;;;;;;8.09;94.42;100155.34;5046309;28;19977;-73
2022/04/06 03:03:38;;;;;;;;;;;;;;;8.07;93.97;100144.09;5080034;28;20377;-72
2022/04/06 03:06:05;;;;;;;;;;;;;;;8.08;92.84;100135.34;5046677;28;19923;-73
2022/04/06 03:08:30;;;;;;;;;;;;;;;8.10;92.92;100130.06;5049161;28;19917;-73
2022/04/06 03:10:57;;;;;;;;;;;;;;;8.05;92.61;100138.09;5048085;28;19931;-72
2022/04/06 03:13:22;;;;;;;;;;;;;;;8.13;92.49;100129.88;5046322;28;19921;-73
2022/04/06 03:15:47;;;;;;;;;;;;;;;8.10;91.99;100130.88;5046993;28;19986;-75
2022/04/06 03:18:13;;;;;;;;;;;;;;;8.08;91.63;100129.28;5078108;28;19990;-73
2022/04/06 03:20:38;;;;;;;;;;;;;;;8.08;92.13;100121.44;5048885;28;20357;-73
2022/04/06 03:23:03;;;;;;;;;;;;;;;8.07;92.01;100127.56;5045741;28;20025;-73
2022/04/06 03:25:29;;;;;;;;;;;;;;;8.10;91.55;100128.28;5048017;28;19917;-73
2022/04/06 03:27:54;;;;;;;;;;;;;;;8.12;91.45;100122.94;5046641;28;20278;-73
2022/04/06 03:30:19;;;;;;;;;;;;;;;8.08;91.71;100126.66;5047366;28;19924;-75
2022/04/06 03:32:44;;;;;;;;;;;;;;;8.12;91.40;100104.63;5061230;28;19924;-72
2022/04/06 03:35:10;;;;;;;;;;;;;;;8.13;90.59;100101.09;5046020;28;19916;-72
2022/04/06 03:37:35;;;;;;;;;;;;;;;8.13;90.97;100090.63;5046632;28;20281;-72
2022/04/06 03:40:01;;;;;;;;;;;;;;;8.14;89.88;100097.56;5045416;28;19921;-72
2022/04/06 03:42:27;;;;;;;;;;;;;;;8.19;89.93;100088.56;5043891;28;19928;-73
2022/04/06 03:44:52;;;;;;;;;;;;;;;8.10;90.73;100096.88;5048153;28;19917;-72
2022/04/06 03:47:17;;;;;;;;;;;;;;;8.17;90.39;100082.56;5044196;28;19928;-73
2022/04/06 03:49:42;;;;;;;;;;;;;;;8.15;90.55;100087.03;5047820;28;19928;-73
2022/04/06 03:52:08;;;;;;;;;;;;;;;8.09;90.55;100084.72;5044416;28;19928;-72
2022/04/06 03:54:33;;;;;;;;;;;;;;;8.08;91.05;100087.41;5044886;28;19974;-72
2022/04/06 03:56:58;;;;;;;;;;;;;;;8.10;90.68;100086.41;5045901;28;19916;-72
2022/04/06 03:59:24;;;;;;;;;;;;;;;8.09;90.99;100076.88;5046151;28;19971;-72
2022/04/06 04:01:49;;;;;;;;;;;;;;;8.10;90.63;100082.97;5046719;28;19970;-73
2022/04/06 04:04:17;;;;;;;;;;;;;;;8.12;90.53;100078.47;5045226;28;19927;-73
2022/04/06 04:06:44;;;;;;;;;;;;;;;8.13;90.22;100073.19;5048240;28;19928;-73
2022/04/06 04:09:09;;;;;;;;;;;;;;;8.13;90.10;100065.34;5045026;28;20310;-73
2022/04/06 04:11:34;;;;;;;;;;;;;;;8.12;90.17;100071.50;5047879;28;19921;-72
2022/04/06 04:14:00;;;;;;;;;;;;;;;8.18;89.73;100063.31;5045740;28;20366;-72
2022/04/06 04:16:25;;;;;;;;;;;;;;;8.14;89.32;100059.19;5044675;28;20449;-73
2022/04/06 04:18:50;;;;;;;;;;;;;;;8.12;89.67;100049.69;5045659;28;20012;-72
2022/04/06 04:23:56;;;;;;;;;;;;;;;8.18;88.92;100042.38;5045713;28;19964;-73
2022/04/06 04:26:22;;;;;;;;;;;;;;;8.17;88.83;100051.16;5041848;28;19956;-72
2022/04/06 04:28:47;;;;;;;;;;;;;;;8.17;88.80;100048.53;5045292;28;19917;-72
2022/04/06 04:31:12;;;;;;;;;;;;;;;8.17;89.52;100040.69;5043229;28;19920;-73
2022/04/06 04:33:37;;;;;;;;;;;;;;;8.16;90.24;100049.47;5076454;28;19921;-71
2022/04/06 04:36:03;;;;;;;;;;;;;;;8.11;90.07;100043.63;5043459;28;20023;-71
2022/04/06 04:38:28;;;;;;;;;;;;;;;8.12;89.72;100044.47;5046731;28;19921;-72
2022/04/06 04:40:54;;;;;;;;;;;;;;;8.14;89.29;100030.41;5045357;28;19932;-72
2022/04/06 04:43:20;;;;;;;;;;;;;;;8.11;89.62;100035.78;5044088;28;19917;-72
2022/04/06 04:45:45;;;;;;;;;;;;;;;8.11;89.51;100022.69;5046487;28;20385;-72
2022/04/06 04:48:10;;;;;;;;;;;;;;;8.15;88.68;100026.88;5043831;28;19943;-73
2022/04/06 04:50:36;;;;;;;;;;;;;;;8.16;88.82;100022.47;5046792;28;19924;-72
2022/04/06 04:53:01;;;;;;;;;;;;;;;8.19;89.01;100031.00;5044398;28;19982;-74
2022/04/06 04:55:26;;;;;;;;;;;;;;;8.17;88.99;100032.00;5045409;28;19921;-73
2022/04/06 04:57:51;;;;;;;;;;;;;;;8.21;89.21;100015.25;5059553;28;19959;-74
2022/04/06 05:00:17;;;;;;;;;;;;;;;8.17;89.84;100025.00;5044711;28;19921;-74
2022/04/06 05:02:42;;;;;;;;;;;;;;;8.19;89.49;100024.94;5037044;28;20008;-72
2022/04/06 05:05:08;;;;;;;;;;;;;;;8.20;89.23;100014.38;5045023;28;20002;-72
2022/04/06 05:07:37;;;;;;;;;;;;;;;8.22;89.75;100010.84;5048210;28;19917;-73
2022/04/06 05:10:04;;;;;;;;;;;;;;;8.23;89.22;100002.06;5043288;28;20015;-72
2022/04/06 05:12:29;;;;;;;;;;;;;;;8.24;89.58;100014.25;5045274;28;19916;-73
2022/04/06 05:14:55;;;;;;;;;;;;;;;8.28;89.38;100010.53;5053081;28;19924;-73
2022/04/06 05:17:20;;;;;;;;;;;;;;;8.23;89.36;100008.16;5044627;28;19932;-72
2022/04/06 05:19:45;;;;;;;;;;;;;;;8.18;89.66;100005.75;5045899;28;19925;-72
2022/04/06 05:22:10;;;;;;;;;;;;;;;8.21;89.49;100002.16;5044305;28;20012;-73
2022/04/06 05:24:36;;;;;;;;;;;;;;;8.20;90.50;100010.94;5047383;28;19924;-74
2022/04/06 05:27:03;;;;;;;;;;;;;;;8.24;90.84;100014.25;5044455;28;19927;-71
2022/04/06 05:29:29;;;;;;;;;;;;;;;8.16;91.95;100010.22;5040866;28;20309;-73
2022/04/06 05:31:54;;;;;;;;;;;;;;;8.07;92.91;100029.00;5042631;28;19924;-72
2022/04/06 05:34:19;;;;;;;;;;;;;;;8.03;94.44;100035.31;5044183;28;19955;-73
2022/04/06 05:36:44;;;;;;;;;;;;;;;8.06;94.59;100032.53;5047795;28;19925;-72
2022/04/06 05:39:10;;;;;;;;;;;;;;;8.04;94.83;100037.03;5063196;28;19924;-72
2022/04/06 05:41:35;;;;;;;;;;;;;;;7.97;95.17;100030.38;5049548;28;19921;-71
2022/04/06 05:44:01;;;;;;;;;;;;;;;8.00;95.45;100030.22;5049148;28;19932;-75
2022/04/06 05:46:26;;;;;;;;;;;;;;;7.95;94.91;100030.47;5064368;28;19927;-71
2022/04/06 05:48:51;;;;;;;;;;;;;;;7.99;95.14;100024.13;5047985;28;19920;-72
2022/04/06 05:51:16;;;;;;;;;;;;;;;7.96;95.05;100029.53;5048776;28;19948;-72
2022/04/06 05:53:42;;;;;;;;;;;;;;;7.99;94.97;100024.13;5049682;28;20278;-72
2022/04/06 05:56:07;;;;;;;;;;;;;;;7.98;95.24;100021.59;5049084;28;19962;-72
2022/04/06 05:58:32;;;;;;;;;;;;;;;8.02;94.27;100021.38;5049532;28;19940;-73
2022/04/06 06:00:57;;;;;;;;;;;;;;;8.04;94.81;100013.47;5048201;28;20408;-72
2022/04/06 06:03:23;;;;;;;;;;;;;;;8.04;94.69;100018.72;5047508;28;19921;-72
2022/04/06 06:05:48;;;;;;;;;;;;;;;8.02;94.86;100010.91;5049882;28;19920;-72
2022/04/06 06:08:13;;;;;;;;;;;;;;;8.02;94.63;100017.94;5061205;28;20400;-72
2022/04/06 06:10:39;;;;;;;;;;;;;;;8.02;94.83;100003.06;5049909;28;19920;-72
2022/04/06 06:13:04;;;;;;;;;;;;;;;8.06;93.94;100011.59;5047492;28;20015;-72
2022/04/06 06:15:29;;;;;;;;;;;;;;;8.05;94.43;100009.91;5047226;28;19924;-73
2022/04/06 06:17:54;;;;;;;;;;;;;;;8.02;95.02;100004.84;5047713;28;20008;-72
2022/04/06 06:20:20;;;;;;;;;;;;;;;8.05;95.01;100009.91;5047466;28;19997;-73
2022/04/06 06:22:45;;;;;;;;;;;;;;;8.05;94.49;100005.53;5048653;28;19929;-74
2022/04/06 06:25:11;;;;;;;;;;;;;;;8.08;93.82;99999.28;5047292;28;19951;-74
2022/04/06 06:27:37;;;;;;;;;;;;;;;8.06;94.94;100001.13;5062739;28;19924;-72
2022/04/06 06:30:02;;;;;;;;;;;;;;;8.07;95.24;100013.31;5037707;28;19921;-72
2022/04/06 06:32:28;;;;;;;;;;;;;;;8.03;95.24;99999.53;5047558;28;19928;-73
2022/04/06 06:34:53;;;;;;;;;;;;;;;7.97;96.95;100009.44;5048925;28;19999;-72
2022/04/06 06:37:18;;;;;;;;;;;;;;;7.94;97.72;100013.06;5047236;28;19939;-73
2022/04/06 06:39:43;;;;;;;;;;;;;;;7.88;97.69;100010.78;5049005;28;19932;-73
2022/04/06 06:42:09;;;;;;;;;;;;;;;7.84;98.52;100017.91;5046856;28;19924;-74
2022/04/06 06:44:34;;;;;;;;;;;;;;;7.81;98.97;100014.59;5048664;28;19928;-74
2022/04/06 06:46:59;;;;;;;;;;;;;;;7.80;99.12;100010.28;5046483;28;19921;-73
2022/04/06 06:49:24;;;;;;;;;;;;;;;7.81;98.65;100014.59;5047107;28;19917;-72
2022/04/06 06:51:50;;;;;;;;;;;;;;;7.76;98.00;100004.34;5046215;28;20167;-74
2022/04/06 06:54:15;;;;;;;;;;;;;;;7.77;97.62;100013.91;5047675;28;19925;-75
2022/04/06 06:56:40;;;;;;;;;;;;;;;7.79;98.16;99998.13;5047242;28;20405;-73
2022/04/06 06:59:06;;;;;;;;;;;;;;;7.82;97.52;99997.97;5069033;28;19931;-73
2022/04/06 07:01:31;;;;;;;;;;;;;;;7.86;97.51;99999.53;5045303;28;20008;-74
2022/04/06 07:03:56;;;;;;;;;;;;;;;7.86;97.67;100000.38;5048116;28;19917;-72
2022/04/06 07:06:21;;;;;;;;;;;;;;;7.74;98.17;99999.22;5062442;28;19916;-73
2022/04/06 07:08:47;;;;;;;;;;;;;;;7.74;98.78;100006.19;5048420;28;20031;-72
2022/04/06 07:11:12;;;;;;;;;;;;;;;7.74;98.65;99995.72;5062213;28;19921;-73
2022/04/06 07:13:37;;;;;;;;;;;;;;;7.72;98.88;100005.41;5050988;28;19921;-73
2022/04/06 07:16:05;;;;;;;;;;;;;;;7.76;99.57;100001.75;5048065;28;20397;-74
2022/04/06 07:18:31;;;;;;;;;;;;;;;7.78;99.18;100002.50;5047846;28;20381;-72
2022/04/06 07:20:57;;;;;;;;;;;;;;;7.86;99.51;100005.59;5047581;28;19974;-72
2022/04/06 07:23:23;;;;;;;;;;;;;;;7.97;99.37;99986.78;5044359;28;20370;-74
2022/04/06 07:25:48;;;;;;;;;;;;;;;8.03;98.11;99983.84;5050649;28;19951;-73
2022/04/06 07:28:13;;;;;;;;;;;;;;;8.11;97.75;99979.97;5045848;28;20402;-72
2022/04/06 07:30:38;;;;;;;;;;;;;;;8.17;97.67;99977.06;5045375;28;19991;-72
2022/04/06 07:33:04;;;;;;;;;;;;;;;8.22;97.67;99968.97;5046330;28;20028;-74
2022/04/06 07:35:32;;;;;;;;;;;;;;;8.19;97.98;99972.59;5046339;28;19917;-73
2022/04/06 07:37:57;;;;;;;;;;;;;;;8.24;98.88;99972.38;5076022;28;20691;-72
2022/04/06 07:40:23;;;;;;;;;;;;;;;8.24;98.65;99972.38;5044164;28;19925;-72
2022/04/06 07:42:49;;;;;;;;;;;;;;;8.20;99.29;99962.06;5045446;28;20011;-73
2022/04/06 07:45:17;;;;;;;;;;;;;;;8.19;99.14;99957.75;5047064;28;19936;-74
2022/04/06 07:47:43;;;;;;;;;;;;;;;8.30;99.29;99965.06;5048607;28;19923;-74
2022/04/06 07:50:09;;;;;;;;;;;;;;;8.33;99.74;99950.97;5047252;28;19917;-74
2022/04/06 07:52:35;;;;;;;;;;;;;;;8.34;99.56;99953.47;5039196;28;20010;-73
2022/04/06 07:55:00;;;;;;;;;;;;;;;8.39;99.96;99945.38;5044038;28;19917;-74
2022/04/06 07:57:27;;;;;;;;;;;;;;;8.50;99.51;99950.09;5047093;28;20381;-73
2022/04/06 07:59:53;;;;;;;;;;;;;;;8.56;99.35;99952.38;5062033;28;20566;-73
2022/04/06 08:02:18;;;;;;;;;;;;;;;8.60;99.24;99951.31;5045857;28;20003;-72
2022/04/06 08:04:43;;;;;;;;;;;;;;;8.61;98.99;99946.91;5047492;28;20439;-72
2022/04/06 08:07:08;;;;;;;;;;;;;;;8.66;99.47;99945.72;5046697;28;19932;-73
2022/04/06 08:09:34;;;;;;;;;;;;;;;8.83;98.98;99954.47;5046086;28;20004;-73
2022/04/06 08:12:00;;;;;;;;;;;;;;;8.85;98.77;99955.25;5047462;28;19967;-73
2022/04/06 08:14:25;;;;;;;;;;;;;;;8.92;98.61;99940.88;5039115;28;20274;-73
2022/04/06 08:16:51;;;;;;;;;;;;;;;9.11;98.07;99953.81;5046915;28;19927;-74
2022/04/06 08:19:17;;;;;;;;;;;;;;;9.18;96.41;99929.88;5046192;28;19995;-74
2022/04/06 08:21:42;;;;;;;;;;;;;;;9.26;96.16;99925.91;5046998;28;20105;-73
2022/04/06 08:24:07;;;;;;;;;;;;;;;9.53;95.35;99906.94;5046712;28;19951;-73
2022/04/06 08:26:34;;;;;;;;;;;;;;;9.50;94.39;99909.72;5045985;28;19971;-74
2022/04/06 08:28:59;;;;;;;;;;;;;;;9.49;94.95;99912.41;5047007;28;19924;-73
2022/04/06 08:31:24;;;;;;;;;;;;;;;9.33;95.04;99918.56;5045739;28;19916;-74
2022/04/06 08:33:49;;;;;;;;;;;;;;;9.36;95.01;99909.66;5046788;28;19917;-73
2022/04/06 08:36:16;;;;;;;;;;;;;;;9.52;94.77;99912.25;5044533;28;20283;-72
2022/04/06 08:38:42;;;;;;;;;;;;;;;9.58;94.81;99914.53;5046360;28;19939;-73
2022/04/06 08:41:07;;;;;;;;;;;;;;;9.53;94.73;99917.41;5043999;28;20393;-73
2022/04/06 08:43:33;;;;;;;;;;;;;;;9.63;94.77;99912.47;5043927;28;20433;-74
2022/04/06 08:45:58;;;;;;;;;;;;;;;9.72;94.42;99911.94;5045833;28;19970;-73
2022/04/06 08:48:28;;;;;;;;;;;;;;;9.73;94.24;99910.16;5045323;28;19917;-74
2022/04/06 08:50:54;;;;;;;;;;;;;;;9.88;94.06;99900.56;5078795;28;19928;-75
2022/04/06 08:53:20;;;;;;;;;;;;;;;10.20;93.27;99901.22;5045425;28;20587;-74
2022/04/06 08:55:46;;;;;;;;;;;;;;;10.32;92.42;99891.78;5045749;28;19921;-74
2022/04/06 08:58:11;;;;;;;;;;;;;;;10.32;92.87;99897.03;5045584;28;19979;-74
2022/04/06 09:00:36;;;;;;;;;;;;;;;10.18;92.38;99887.38;5028756;28;19960;-74
2022/04/06 09:03:02;;;;;;;;;;;;;;;10.31;92.40;99887.47;5037780;28;20405;-74
2022/04/06 09:05:28;;;;;;;;;;;;;;;10.41;91.91;99877.28;5038173;28;19927;-74
2022/04/06 09:07:54;;;;;;;;;;;;;;;10.62;90.84;99874.25;5047642;28;19928;-75
2022/04/06 09:10:27;;;;;;;;;;;;;;;10.77;89.92;99867.19;5044782;28;19917;-74
2022/04/06 09:13:05;;;;;;;;;;;;;;;10.73;90.26;99865.69;5051814;28;19923;-74
2022/04/06 09:15:30;;;;;;;;;;;;;;;10.84;90.30;99871.09;5040842;28;19932;-74
2022/04/06 09:18:02;;;;;;;;;;;;;;;10.83;89.80;99854.50;5049882;28;19944;-73
2022/04/06 09:20:29;;;;;;;;;;;;;;;10.83;89.78;99862.41;5041267;28;20317;-74
2022/04/06 09:23:01;;;;;;;;;;;;;;;10.64;90.59;99856.59;5051813;28;20023;-73
2022/04/06 09:25:31;;;;;;;;;;;;;;;10.60;91.20;99869.09;5041981;28;20036;-73
2022/04/06 09:28:03;;;;;;;;;;;;;;;10.60;90.84;99861.19;5048358;28;19928;-74
2022/04/06 09:30:31;;;;;;;;;;;;;;;10.60;91.23;99870.88;5078922;28;19933;-74
2022/04/06 09:33:01;;;;;;;;;;;;;;;10.56;91.12;99869.38;5049523;28;20409;-74
2022/04/06 09:35:26;;;;;;;;;;;;;;;10.63;90.55;99863.66;5033873;28;19970;-73
2022/04/06 09:38:07;;;;;;;;;;;;;;;10.62;91.21;99869.00;5047826;28;19920;-73
2022/04/06 09:40:32;;;;;;;;;;;;;;;10.66;91.66;99868.72;5043297;28;20385;-74
2022/04/06 09:42:58;;;;;;;;;;;;;;;10.71;90.26;99859.69;5029047;28;19963;-72
2022/04/06 09:48:11;;;;;;;;;;;;;;;10.67;90.41;99852.00;5029914;28;20534;-73
2022/04/06 09:50:38;;;;;;;;;;;;;;;10.74;90.50;99848.97;5029056;28;19921;-74
2022/04/06 09:53:04;;;;;;;;;;;;;;;11.02;89.00;99844.59;5036952;28;19924;-74
2022/04/06 09:55:30;;;;;;;;;;;;;;;10.97;88.32;99835.22;5029584;28;20278;-73
2022/04/06 09:57:58;;;;;;;;;;;;;;;11.03;88.63;99841.00;5030741;28;19924;-74
2022/04/06 10:00:24;;;;;;;;;;;;;;;11.28;87.81;99825.31;5029875;28;20433;-72
2022/04/06 10:02:58;;;;;;;;;;;;;;;11.53;86.35;99822.81;5049633;28;19917;-72
2022/04/06 10:05:24;;;;;;;;;;;;;;;11.70;86.31;99814.66;5048137;28;20385;-72
2022/04/06 10:07:51;;;;;;;;;;;;;;;11.45;86.27;99807.59;5050463;28;19924;-72
2022/04/06 10:10:17;;;;;;;;;;;;;;;11.38;86.44;99816.81;5048523;28;20373;-73
2022/04/06 10:12:43;;;;;;;;;;;;;;;11.15;86.85;99824.44;5049295;28;19927;-73
2022/04/06 10:15:08;;;;;;;;;;;;;;;11.07;87.68;99824.97;5040111;28;20446;-73
2022/04/06 10:17:35;;;;;;;;;;;;;;;11.02;88.20;99813.88;5047747;28;19959;-73
2022/04/06 10:20:07;;;;;;;;;;;;;;;10.97;87.55;99816.81;5050154;28;19977;-73
2022/04/06 10:22:37;;;;;;;;;;;;;;;11.18;86.99;99820.78;5046169;28;19935;-73
2022/04/06 10:25:03;;;;;;;;;;;;;;;11.23;87.26;99810.78;5047137;28;19931;-73
2022/04/06 10:27:34;;;;;;;;;;;;;;;11.09;87.61;99809.91;5047615;28;19936;-73
2022/04/06 10:30:16;;;;;;;;;;;;;;;11.08;87.59;99813.47;5046726;28;19932;-74
2022/04/06 10:32:43;;;;;;;;;;;;;;;11.27;87.05;99813.13;5040345;28;20801;-74
2022/04/06 10:35:23;;;;;;;;;;;;;;;11.57;85.71;99817.28;5044015;28;20554;-72
2022/04/06 10:37:49;;;;;;;;;;;;;;;11.42;86.57;99799.91;5042316;28;19928;-73
2022/04/06 10:40:14;;;;;;;;;;;;;;;11.45;86.12;99789.19;5048762;28;19928;-72
2022/04/06 10:42:42;;;;;;;;;;;;;;;11.68;85.57;99799.94;5046786;28;19920;-73
2022/04/06 10:45:27;;;;;;;;;;;;;;;11.58;86.57;99800.53;5047859;28;19920;-73
2022/04/06 10:48:08;;;;;;;;;;;;;;;11.61;85.42;99804.75;5025651;28;19925;-73
2022/04/06 10:50:33;;;;;;;;;;;;;;;11.60;85.13;99785.47;5040517;28;19931;-73
2022/04/06 10:53:13;;;;;;;;;;;;;;;12.47;83.22;99776.84;5047893;28;19921;-73
2022/04/06 10:55:39;;;;;;;;;;;;;;;12.65;80.70;99765.97;5046889;28;19924;-73
2022/04/06 10:58:04;;;;;;;;;;;;;;;12.32;82.24;99768.25;5048064;28;19917;-73
2022/04/06 11:00:30;;;;;;;;;;;;;;;12.07;82.72;99780.53;5047011;28;20374;-74
2022/04/06 11:03:02;;;;;;;;;;;;;;;12.14;81.96;99765.16;5046757;28;19916;-74
2022/04/06 11:05:43;;;;;;;;;;;;;;;12.16;82.31;99771.16;5032506;28;19957;-73
2022/04/06 11:10:49;;;;;;;;;;;;;;;12.32;81.55;99767.44;5047156;28;19931;-73
2022/04/06 11:13:15;;;;;;;;;;;;;;;12.20;82.70;99769.13;5046385;28;20011;-73
2022/04/06 11:15:41;;;;;;;;;;;;;;;12.22;82.36;99759.34;5046986;28;20399;-72
2022/04/06 11:18:21;;;;;;;;;;;;;;;12.25;82.45;99750.38;5045261;28;19921;-73
2022/04/06 11:20:46;;;;;;;;;;;;;;;12.35;81.46;99756.66;5046174;28;20355;-73
2022/04/06 11:23:16;;;;;;;;;;;;;;;12.38;81.64;99743.28;5055986;28;19923;-72
2022/04/06 11:25:46;;;;;;;;;;;;;;;12.35;81.64;99740.84;5059246;28;19925;-72
2022/04/06 11:28:11;;;;;;;;;;;;;;;12.35;81.73;99735.59;5037999;28;20011;-73
2022/04/06 11:30:42;;;;;;;;;;;;;;;12.31;81.97;99755.22;5048819;28;20437;-73
2022/04/06 11:33:07;;;;;;;;;;;;;;;12.14;82.13;99738.00;5077230;28;20435;-72
2022/04/06 11:35:34;;;;;;;;;;;;;;;12.25;82.22;99739.84;5049293;28;19952;-73
2022/04/06 11:38:00;;;;;;;;;;;;;;;12.16;82.34;99741.34;5046991;28;19917;-73
2022/04/06 11:40:26;;;;;;;;;;;;;;;12.17;82.84;99738.59;5047513;28;19928;-73
2022/04/06 11:42:52;;;;;;;;;;;;;;;12.05;82.73;99740.34;5041969;28;19925;-73
2022/04/06 11:45:20;;;;;;;;;;;;;;;12.02;83.37;99737.06;5044988;28;20012;-73
2022/04/06 11:47:51;;;;;;;;;;;;;;;11.77;83.88;99730.88;5047074;28;19917;-73
2022/04/06 11:50:16;;;;;;;;;;;;;;;11.72;83.96;99739.09;5031909;28;20004;-72
2022/04/06 11:52:42;;;;;;;;;;;;;;;11.68;84.47;99737.59;5074439;28;20007;-72
2022/04/06 11:55:07;;;;;;;;;;;;;;;11.42;85.48;99742.84;5045998;28;19921;-71
2022/04/06 11:57:34;;;;;;;;;;;;;;;11.38;85.90;99746.66;5048256;28;20658;-73
2022/04/06 11:59:59;;;;;;;;;;;;;;;11.23;86.16;99766.09;5046452;28;19921;-73
2022/04/06 12:02:24;;;;;;;;;;;;;;;11.14;87.54;99763.13;5045726;28;20339;-73
2022/04/06 12:05:05;;;;;;;;;;;;;;;10.85;89.63;99770.31;5047208;28;19924;-74
2022/04/06 12:07:31;;;;;;;;;;;;;;;10.60;93.56;99802.59;5044451;28;20332;-73
2022/04/06 12:09:56;;;;;;;;;;;;;;;10.40;96.70;99795.97;5047960;28;20290;-73
2022/04/06 12:12:23;;;;;;;;;;;;;;;10.24;97.42;99796.91;5044670;28;19917;-72
2022/04/06 12:14:49;;;;;;;;;;;;;;;10.08;98.42;99788.28;5044085;28;19960;-73
2022/04/06 12:17:15;;;;;;;;;;;;;;;10.08;98.57;99769.91;5044366;28;20563;-71
2022/04/06 12:19:40;;;;;;;;;;;;;;;9.90;98.25;99793.75;5045585;28;19920;-73
2022/04/06 12:22:07;;;;;;;;;;;;;;;9.77;98.24;99783.13;5046058;28;19917;-73
2022/04/06 12:24:41;;;;;;;;;;;;;;;9.83;98.53;99787.16;5038560;28;19932;-73
2022/04/06 12:27:06;;;;;;;;;;;;;;;9.77;98.91;99782.31;5046393;28;19920;-73
2022/04/06 12:29:32;;;;;;;;;;;;;;;9.60;99.90;99776.28;5045932;28;20366;-73
2022/04/06 12:31:58;;;;;;;;;;;;;;;9.57;100.00;99769.44;5047957;28;19925;-72
2022/04/06 12:34:27;;;;;;;;;;;;;;;9.69;100.00;99756.53;5046008;28;19920;-72
2022/04/06 12:36:53;;;;;;;;;;;;;;;9.72;100.00;99758.97;5048320;28;20313;-72
2022/04/06 12:39:18;;;;;;;;;;;;;;;9.88;100.00;99753.63;5045907;28;19921;-72
2022/04/06 12:41:52;;;;;;;;;;;;;;;9.66;100.00;99754.09;5047434;28;19947;-74
2022/04/06 12:44:17;;;;;;;;;;;;;;;9.67;100.00;99738.28;5045767;28;20011;-72
2022/04/06 12:46:44;;;;;;;;;;;;;;;9.54;100.00;99743.41;5055329;28;20011;-73
2022/04/06 12:49:24;;;;;;;;;;;;;;;9.54;100.00;99734.69;5046285;28;19920;-73
2022/04/06 12:52:05;;;;;;;;;;;;;;;9.61;100.00;99746.50;5046037;28;19988;-73
2022/04/06 12:54:32;;;;;;;;;;;;;;;9.51;100.00;99740.13;5044533;28;19935;-73
2022/04/06 12:57:04;;;;;;;;;;;;;;;9.62;100.00;99749.97;5047092;28;19925;-73